Terminal Aerodrome Forecast
Issued by NWS

Home | Current Version | Previous Version | Text Only | Print | Product List | Glossary On
Versions: 1 2 3 4 5 6 7 8 9 10 11 12 13
228
FTUS45 KVEF 041120
TAFEED
TAF
KEED 041120Z 0412/0512 VRB06KT P6SM FEW250
     FM041800 15010KT P6SM FEW250
     FM042000 17014G24KT P6SM SCT250
     FM050000 20014G22KT P6SM FEW250
     FM050400 21010KT P6SM FEW250=

USA.gov is the U.S. government's official web portal to all federal, state and local government web resources and services.